sensor_id;sensor_type;location;lat;lon;timestamp;P1;durP1;ratioP1;P2;durP2;ratioP2
12214;SDS011;6170;42.206;24.142;2022-07-23T12:26:05;14.23;;;6.13;;
12214;SDS011;6170;42.206;24.142;2022-07-23T12:28:33;16.98;;;6.85;;
12214;SDS011;6170;42.206;24.142;2022-07-23T12:31:02;12.85;;;6.70;;
12214;SDS011;6170;42.206;24.142;2022-07-23T12:33:30;36.25;;;26.75;;
12214;SDS011;6170;42.206;24.142;2022-07-23T12:35:59;12.77;;;6.72;;
12214;SDS011;6170;42.206;24.142;2022-07-23T12:38:35;14.27;;;5.75;;
12214;SDS011;6170;42.206;24.142;2022-07-23T12:41:05;16.33;;;6.32;;
12214;SDS011;6170;42.206;24.142;2022-07-23T12:43:33;15.63;;;6.50;;
12214;SDS011;6170;42.206;24.142;2022-07-23T12:46:03;13.40;;;6.18;;
12214;SDS011;6170;42.206;24.142;2022-07-23T12:48:31;12.43;;;6.50;;
12214;SDS011;6170;42.206;24.142;2022-07-23T12:51:01;12.90;;;6.63;;
12214;SDS011;6170;42.206;24.142;2022-07-23T12:53:30;15.50;;;6.72;;
12214;SDS011;6170;42.206;24.142;2022-07-23T12:55:59;14.00;;;6.28;;
12214;SDS011;6170;42.206;24.142;2022-07-23T12:58:39;10.40;;;5.38;;
12214;SDS011;6170;42.206;24.142;2022-07-23T13:01:07;15.23;;;6.10;;
12214;SDS011;6170;42.206;24.142;2022-07-23T13:03:35;16.67;;;6.95;;
12214;SDS011;6170;42.206;24.142;2022-07-23T13:06:04;13.20;;;6.30;;
12214;SDS011;6170;42.206;24.142;2022-07-23T13:08:32;15.05;;;6.40;;
12214;SDS011;6170;42.206;24.142;2022-07-23T13:11:00;14.80;;;6.35;;
12214;SDS011;6170;42.206;24.142;2022-07-23T13:13:30;13.75;;;6.78;;
12214;SDS011;6170;42.206;24.142;2022-07-23T13:16:00;14.43;;;6.00;;
12214;SDS011;6170;42.206;24.142;2022-07-23T13:18:27;16.92;;;6.40;;
12214;SDS011;6170;42.206;24.142;2022-07-23T13:20:55;14.30;;;5.68;;
12214;SDS011;6170;42.206;24.142;2022-07-23T13:23:22;17.02;;;5.70;;
12214;SDS011;6170;42.206;24.142;2022-07-23T13:25:49;17.77;;;5.93;;
12214;SDS011;6170;42.206;24.142;2022-07-23T13:28:16;12.65;;;5.97;;
12214;SDS011;6170;42.206;24.142;2022-07-23T13:30:46;12.88;;;6.25;;
12214;SDS011;6170;42.206;24.142;2022-07-23T13:33:15;12.27;;;5.82;;
12214;SDS011;6170;42.206;24.142;2022-07-23T13:35:42;20.42;;;6.07;;
12214;SDS011;6170;42.206;24.142;2022-07-23T13:38:10;15.55;;;6.05;;
12214;SDS011;6170;42.206;24.142;2022-07-23T13:40:37;12.75;;;6.05;;
12214;SDS011;6170;42.206;24.142;2022-07-23T13:43:07;11.70;;;6.43;;
12214;SDS011;6170;42.206;24.142;2022-07-23T13:45:34;81.55;;;59.40;;
12214;SDS011;6170;42.206;24.142;2022-07-23T13:48:03;30.30;;;19.10;;
12214;SDS011;6170;42.206;24.142;2022-07-23T13:50:30;12.00;;;5.88;;
12214;SDS011;6170;42.206;24.142;2022-07-23T13:52:59;19.05;;;5.93;;
12214;SDS011;6170;42.206;24.142;2022-07-23T13:55:27;18.65;;;6.10;;
12214;SDS011;6170;42.206;24.142;2022-07-23T13:57:54;19.48;;;6.05;;
12214;SDS011;6170;42.206;24.142;2022-07-23T14:00:21;16.77;;;5.70;;
12214;SDS011;6170;42.206;24.142;2022-07-23T14:02:47;15.63;;;6.40;;
12214;SDS011;6170;42.206;24.142;2022-07-23T14:05:16;16.73;;;6.00;;
12214;SDS011;6170;42.206;24.142;2022-07-23T14:07:43;14.95;;;5.80;;
12214;SDS011;6170;42.206;24.142;2022-07-23T14:10:12;16.67;;;6.43;;
12214;SDS011;6170;42.206;24.142;2022-07-23T14:12:39;159.48;;;118.80;;
12214;SDS011;6170;42.206;24.142;2022-07-23T14:15:06;84.15;;;75.10;;
12214;SDS011;6170;42.206;24.142;2022-07-23T14:17:34;204.65;;;149.48;;
12214;SDS011;6170;42.206;24.142;2022-07-23T14:20:02;16.40;;;8.25;;
12214;SDS011;6170;42.206;24.142;2022-07-23T14:22:31;11.90;;;5.88;;
12214;SDS011;6170;42.206;24.142;2022-07-23T14:24:58;19.88;;;6.00;;
12214;SDS011;6170;42.206;24.142;2022-07-23T14:27:25;15.65;;;5.63;;
12214;SDS011;6170;42.206;24.142;2022-07-23T14:29:53;14.07;;;5.95;;
12214;SDS011;6170;42.206;24.142;2022-07-23T14:32:20;13.60;;;5.43;;
12214;SDS011;6170;42.206;24.142;2022-07-23T14:34:48;15.98;;;6.13;;
12214;SDS011;6170;42.206;24.142;2022-07-23T14:37:15;15.77;;;6.05;;
12214;SDS011;6170;42.206;24.142;2022-07-23T14:39:44;14.50;;;5.95;;
12214;SDS011;6170;42.206;24.142;2022-07-23T14:42:11;15.15;;;5.25;;
12214;SDS011;6170;42.206;24.142;2022-07-23T14:44:39;13.73;;;5.80;;
12214;SDS011;6170;42.206;24.142;2022-07-23T14:47:07;14.40;;;5.60;;
12214;SDS011;6170;42.206;24.142;2022-07-23T14:49:34;15.82;;;5.35;;
12214;SDS011;6170;42.206;24.142;2022-07-23T14:52:02;13.63;;;5.97;;
12214;SDS011;6170;42.206;24.142;2022-07-23T14:54:29;14.55;;;6.38;;
12214;SDS011;6170;42.206;24.142;2022-07-23T14:56:58;8.40;;;5.35;;
12214;SDS011;6170;42.206;24.142;2022-07-23T14:59:27;14.90;;;5.63;;
12214;SDS011;6170;42.206;24.142;2022-07-23T15:01:55;13.27;;;6.05;;
12214;SDS011;6170;42.206;24.142;2022-07-23T15:04:22;13.07;;;6.10;;
12214;SDS011;6170;42.206;24.142;2022-07-23T15:06:49;14.82;;;6.28;;
12214;SDS011;6170;42.206;24.142;2022-07-23T15:09:16;14.85;;;5.60;;
12214;SDS011;6170;42.206;24.142;2022-07-23T15:11:43;16.10;;;6.72;;
12214;SDS011;6170;42.206;24.142;2022-07-23T15:14:12;14.52;;;6.22;;
12214;SDS011;6170;42.206;24.142;2022-07-23T15:16:39;11.30;;;5.78;;
12214;SDS011;6170;42.206;24.142;2022-07-23T15:19:06;17.88;;;6.22;;
12214;SDS011;6170;42.206;24.142;2022-07-23T15:21:32;10.95;;;5.82;;
12214;SDS011;6170;42.206;24.142;2022-07-23T15:23:59;22.15;;;6.03;;
12214;SDS011;6170;42.206;24.142;2022-07-23T15:26:26;18.38;;;5.88;;
12214;SDS011;6170;42.206;24.142;2022-07-23T15:28:53;14.00;;;5.60;;
12214;SDS011;6170;42.206;24.142;2022-07-23T15:31:22;9.70;;;4.95;;
12214;SDS011;6170;42.206;24.142;2022-07-23T15:33:49;39.17;;;8.88;;
12214;SDS011;6170;42.206;24.142;2022-07-23T15:36:17;15.95;;;6.75;;
12214;SDS011;6170;42.206;24.142;2022-07-23T15:38:44;14.45;;;6.43;;
12214;SDS011;6170;42.206;24.142;2022-07-23T15:41:11;14.63;;;5.88;;
12214;SDS011;6170;42.206;24.142;2022-07-23T15:43:38;13.80;;;5.07;;
12214;SDS011;6170;42.206;24.142;2022-07-23T15:46:05;10.88;;;4.78;;
12214;SDS011;6170;42.206;24.142;2022-07-23T15:48:35;13.98;;;5.65;;
12214;SDS011;6170;42.206;24.142;2022-07-23T15:51:02;11.35;;;5.97;;
12214;SDS011;6170;42.206;24.142;2022-07-23T15:53:30;11.07;;;5.60;;
12214;SDS011;6170;42.206;24.142;2022-07-23T15:55:57;10.35;;;6.20;;
12214;SDS011;6170;42.206;24.142;2022-07-23T15:58:24;12.50;;;5.50;;
12214;SDS011;6170;42.206;24.142;2022-07-23T16:00:52;15.43;;;5.60;;
12214;SDS011;6170;42.206;24.142;2022-07-23T16:03:19;11.48;;;5.53;;
12214;SDS011;6170;42.206;24.142;2022-07-23T16:05:47;13.35;;;5.72;;
12214;SDS011;6170;42.206;24.142;2022-07-23T16:08:14;12.32;;;5.47;;
12214;SDS011;6170;42.206;24.142;2022-07-23T16:10:41;16.63;;;6.15;;
12214;SDS011;6170;42.206;24.142;2022-07-23T16:13:08;85.35;;;10.75;;
12214;SDS011;6170;42.206;24.142;2022-07-23T16:15:35;35.00;;;7.75;;
12214;SDS011;6170;42.206;24.142;2022-07-23T16:18:02;22.27;;;6.90;;
12214;SDS011;6170;42.206;24.142;2022-07-23T16:20:29;14.40;;;5.78;;
12214;SDS011;6170;42.206;24.142;2022-07-23T16:22:57;17.92;;;9.68;;
12214;SDS011;6170;42.206;24.142;2022-07-23T16:25:24;26.70;;;14.85;;
12214;SDS011;6170;42.206;24.142;2022-07-23T16:27:51;33.30;;;18.15;;
12214;SDS011;6170;42.206;24.142;2022-07-23T16:30:18;37.50;;;18.48;;
12214;SDS011;6170;42.206;24.142;2022-07-23T16:32:45;22.48;;;10.75;;
12214;SDS011;6170;42.206;24.142;2022-07-23T16:35:12;21.80;;;11.70;;
12214;SDS011;6170;42.206;24.142;2022-07-23T16:37:39;24.50;;;11.90;;
12214;SDS011;6170;42.206;24.142;2022-07-23T16:40:09;29.08;;;16.77;;
12214;SDS011;6170;42.206;24.142;2022-07-23T16:42:37;32.75;;;17.95;;
12214;SDS011;6170;42.206;24.142;2022-07-23T16:45:05;20.23;;;11.05;;
12214;SDS011;6170;42.206;24.142;2022-07-23T16:47:33;22.35;;;9.15;;
12214;SDS011;6170;42.206;24.142;2022-07-23T16:50:00;21.13;;;11.57;;
12214;SDS011;6170;42.206;24.142;2022-07-23T16:52:27;27.80;;;9.27;;
12214;SDS011;6170;42.206;24.142;2022-07-23T16:54:54;18.98;;;7.90;;
12214;SDS011;6170;42.206;24.142;2022-07-23T16:57:22;47.97;;;28.17;;
12214;SDS011;6170;42.206;24.142;2022-07-23T16:59:49;228.85;;;136.55;;
12214;SDS011;6170;42.206;24.142;2022-07-23T17:02:16;260.02;;;140.07;;
12214;SDS011;6170;42.206;24.142;2022-07-23T17:04:43;601.63;;;318.38;;
12214;SDS011;6170;42.206;24.142;2022-07-23T17:07:10;1878.07;;;747.72;;
12214;SDS011;6170;42.206;24.142;2022-07-23T17:09:37;1598.55;;;752.75;;
12214;SDS011;6170;42.206;24.142;2022-07-23T17:12:05;691.80;;;363.80;;
12214;SDS011;6170;42.206;24.142;2022-07-23T17:14:34;1842.63;;;784.92;;
12214;SDS011;6170;42.206;24.142;2022-07-23T17:17:01;1999.90;;;925.08;;
12214;SDS011;6170;42.206;24.142;2022-07-23T17:19:28;1302.15;;;614.63;;
12214;SDS011;6170;42.206;24.142;2022-07-23T17:21:55;1174.75;;;560.97;;
12214;SDS011;6170;42.206;24.142;2022-07-23T17:24:22;1999.90;;;999.83;;
12214;SDS011;6170;42.206;24.142;2022-07-23T17:26:49;500.92;;;217.25;;
12214;SDS011;6170;42.206;24.142;2022-07-23T17:29:16;77.15;;;28.77;;
12214;SDS011;6170;42.206;24.142;2022-07-23T17:31:44;92.03;;;39.42;;
12214;SDS011;6170;42.206;24.142;2022-07-23T17:34:11;82.68;;;33.92;;
12214;SDS011;6170;42.206;24.142;2022-07-23T17:36:38;42.33;;;18.20;;
12214;SDS011;6170;42.206;24.142;2022-07-23T17:39:05;34.55;;;15.77;;
12214;SDS011;6170;42.206;24.142;2022-07-23T17:41:32;32.65;;;11.75;;
12214;SDS011;6170;42.206;24.142;2022-07-23T17:43:59;31.25;;;12.38;;
12214;SDS011;6170;42.206;24.142;2022-07-23T17:46:26;25.60;;;11.20;;
12214;SDS011;6170;42.206;24.142;2022-07-23T17:48:55;19.23;;;10.15;;
12214;SDS011;6170;42.206;24.142;2022-07-23T17:51:22;21.25;;;9.80;;
12214;SDS011;6170;42.206;24.142;2022-07-23T17:53:49;21.25;;;10.00;;
12214;SDS011;6170;42.206;24.142;2022-07-23T17:56:15;25.92;;;10.15;;
12214;SDS011;6170;42.206;24.142;2022-07-23T17:58:42;25.98;;;10.70;;
12214;SDS011;6170;42.206;24.142;2022-07-23T18:01:09;24.63;;;10.30;;
12214;SDS011;6170;42.206;24.142;2022-07-23T18:03:38;21.15;;;10.43;;
12214;SDS011;6170;42.206;24.142;2022-07-23T18:06:07;18.92;;;9.05;;
12214;SDS011;6170;42.206;24.142;2022-07-23T18:08:34;17.70;;;7.57;;
12214;SDS011;6170;42.206;24.142;2022-07-23T18:11:01;17.05;;;6.78;;
12214;SDS011;6170;42.206;24.142;2022-07-23T18:13:28;11.18;;;5.80;;
12214;SDS011;6170;42.206;24.142;2022-07-23T18:15:54;14.57;;;6.57;;
12214;SDS011;6170;42.206;24.142;2022-07-23T18:18:22;17.05;;;6.95;;
12214;SDS011;6170;42.206;24.142;2022-07-23T18:20:49;13.18;;;6.22;;
12214;SDS011;6170;42.206;24.142;2022-07-23T18:23:17;13.95;;;5.97;;
12214;SDS011;6170;42.206;24.142;2022-07-23T18:25:44;318.30;;;241.93;;
12214;SDS011;6170;42.206;24.142;2022-07-23T18:28:11;64.40;;;34.67;;
12214;SDS011;6170;42.206;24.142;2022-07-23T18:30:38;18.98;;;8.13;;
12214;SDS011;6170;42.206;24.142;2022-07-23T18:33:04;21.83;;;7.32;;
12214;SDS011;6170;42.206;24.142;2022-07-23T18:35:31;17.17;;;7.60;;
12214;SDS011;6170;42.206;24.142;2022-07-23T18:37:58;20.77;;;7.88;;
12214;SDS011;6170;42.206;24.142;2022-07-23T18:40:26;21.65;;;7.72;;
12214;SDS011;6170;42.206;24.142;2022-07-23T18:42:53;16.90;;;6.75;;
12214;SDS011;6170;42.206;24.142;2022-07-23T18:45:21;14.20;;;8.05;;
12214;SDS011;6170;42.206;24.142;2022-07-23T18:47:48;21.17;;;6.80;;
12214;SDS011;6170;42.206;24.142;2022-07-23T18:50:15;19.38;;;7.55;;
12214;SDS011;6170;42.206;24.142;2022-07-23T18:52:42;16.98;;;6.40;;
12214;SDS011;6170;42.206;24.142;2022-07-23T18:55:09;14.73;;;6.70;;
12214;SDS011;6170;42.206;24.142;2022-07-23T18:57:38;19.35;;;6.05;;
12214;SDS011;6170;42.206;24.142;2022-07-23T19:00:05;19.98;;;6.20;;
12214;SDS011;6170;42.206;24.142;2022-07-23T19:02:33;16.05;;;6.50;;
12214;SDS011;6170;42.206;24.142;2022-07-23T19:05:00;16.08;;;7.43;;
12214;SDS011;6170;42.206;24.142;2022-07-23T19:07:27;14.80;;;6.63;;
12214;SDS011;6170;42.206;24.142;2022-07-23T19:09:54;21.92;;;6.22;;
12214;SDS011;6170;42.206;24.142;2022-07-23T19:12:21;14.50;;;6.18;;
12214;SDS011;6170;42.206;24.142;2022-07-23T19:14:49;11.65;;;6.28;;
12214;SDS011;6170;42.206;24.142;2022-07-23T19:17:16;20.00;;;6.63;;
12214;SDS011;6170;42.206;24.142;2022-07-23T19:19:43;13.85;;;6.03;;
12214;SDS011;6170;42.206;24.142;2022-07-23T19:22:10;16.42;;;6.25;;
12214;SDS011;6170;42.206;24.142;2022-07-23T19:24:36;16.63;;;6.22;;
12214;SDS011;6170;42.206;24.142;2022-07-23T19:27:04;15.73;;;5.63;;
12214;SDS011;6170;42.206;24.142;2022-07-23T19:29:31;13.07;;;5.80;;
12214;SDS011;6170;42.206;24.142;2022-07-23T19:32:02;20.05;;;5.93;;
12214;SDS011;6170;42.206;24.142;2022-07-23T19:34:29;13.05;;;6.25;;
12214;SDS011;6170;42.206;24.142;2022-07-23T19:36:56;16.55;;;5.85;;
12214;SDS011;6170;42.206;24.142;2022-07-23T19:39:23;18.60;;;5.97;;
12214;SDS011;6170;42.206;24.142;2022-07-23T19:41:50;12.90;;;5.55;;
12214;SDS011;6170;42.206;24.142;2022-07-23T19:44:17;16.40;;;6.45;;
12214;SDS011;6170;42.206;24.142;2022-07-23T19:46:44;15.80;;;6.10;;
12214;SDS011;6170;42.206;24.142;2022-07-23T19:49:12;18.77;;;6.57;;
12214;SDS011;6170;42.206;24.142;2022-07-23T19:51:39;15.77;;;5.88;;
12214;SDS011;6170;42.206;24.142;2022-07-23T19:54:06;16.42;;;6.00;;
12214;SDS011;6170;42.206;24.142;2022-07-23T19:56:33;15.02;;;6.30;;
12214;SDS011;6170;42.206;24.142;2022-07-23T19:59:00;14.52;;;6.35;;
12214;SDS011;6170;42.206;24.142;2022-07-23T20:01:27;15.25;;;5.93;;
12214;SDS011;6170;42.206;24.142;2022-07-23T20:03:55;16.38;;;5.80;;
12214;SDS011;6170;42.206;24.142;2022-07-23T20:06:23;14.30;;;5.43;;
12214;SDS011;6170;42.206;24.142;2022-07-23T20:08:50;15.68;;;5.72;;
12214;SDS011;6170;42.206;24.142;2022-07-23T20:11:17;13.65;;;5.72;;
12214;SDS011;6170;42.206;24.142;2022-07-23T20:13:44;18.88;;;6.47;;
12214;SDS011;6170;42.206;24.142;2022-07-23T20:16:11;14.45;;;6.40;;
12214;SDS011;6170;42.206;24.142;2022-07-23T20:18:38;13.05;;;5.60;;
12214;SDS011;6170;42.206;24.142;2022-07-23T20:21:05;20.08;;;6.07;;
12214;SDS011;6170;42.206;24.142;2022-07-23T20:23:33;10.63;;;6.40;;
12214;SDS011;6170;42.206;24.142;2022-07-23T20:26:00;15.10;;;6.30;;
12214;SDS011;6170;42.206;24.142;2022-07-23T20:28:27;13.13;;;5.55;;
12214;SDS011;6170;42.206;24.142;2022-07-23T20:30:54;14.45;;;5.72;;
12214;SDS011;6170;42.206;24.142;2022-07-23T20:33:22;13.30;;;5.95;;
12214;SDS011;6170;42.206;24.142;2022-07-23T20:35:49;14.48;;;6.28;;
12214;SDS011;6170;42.206;24.142;2022-07-23T20:38:16;12.05;;;5.40;;
12214;SDS011;6170;42.206;24.142;2022-07-23T20:40:45;16.02;;;5.40;;
12214;SDS011;6170;42.206;24.142;2022-07-23T20:43:12;9.70;;;5.75;;
12214;SDS011;6170;42.206;24.142;2022-07-23T20:45:39;12.20;;;5.82;;
12214;SDS011;6170;42.206;24.142;2022-07-23T20:48:07;13.60;;;5.53;;
12214;SDS011;6170;42.206;24.142;2022-07-23T20:50:34;16.10;;;5.95;;
12214;SDS011;6170;42.206;24.142;2022-07-23T20:53:02;11.25;;;6.07;;
12214;SDS011;6170;42.206;24.142;2022-07-23T20:55:29;15.50;;;5.82;;
12214;SDS011;6170;42.206;24.142;2022-07-23T20:57:57;18.88;;;6.00;;
12214;SDS011;6170;42.206;24.142;2022-07-23T21:00:25;11.68;;;5.63;;
12214;SDS011;6170;42.206;24.142;2022-07-23T21:02:51;19.42;;;6.97;;
12214;SDS011;6170;42.206;24.142;2022-07-23T21:05:18;11.95;;;5.80;;
12214;SDS011;6170;42.206;24.142;2022-07-23T21:07:45;14.10;;;5.85;;
12214;SDS011;6170;42.206;24.142;2022-07-23T21:10:12;17.65;;;6.35;;
12214;SDS011;6170;42.206;24.142;2022-07-23T21:12:40;22.10;;;6.18;;
12214;SDS011;6170;42.206;24.142;2022-07-23T21:15:08;12.93;;;6.63;;
12214;SDS011;6170;42.206;24.142;2022-07-23T21:17:36;14.45;;;5.70;;
12214;SDS011;6170;42.206;24.142;2022-07-23T21:20:03;12.23;;;5.88;;
12214;SDS011;6170;42.206;24.142;2022-07-23T21:22:31;14.35;;;6.57;;
12214;SDS011;6170;42.206;24.142;2022-07-23T21:24:58;17.13;;;6.55;;
12214;SDS011;6170;42.206;24.142;2022-07-23T21:27:25;12.65;;;6.13;;
12214;SDS011;6170;42.206;24.142;2022-07-23T21:29:52;14.02;;;6.30;;
12214;SDS011;6170;42.206;24.142;2022-07-23T21:32:20;14.15;;;6.55;;
12214;SDS011;6170;42.206;24.142;2022-07-23T21:34:47;20.73;;;6.63;;
12214;SDS011;6170;42.206;24.142;2022-07-23T21:37:14;18.33;;;6.47;;
12214;SDS011;6170;42.206;24.142;2022-07-23T21:39:40;16.80;;;7.05;;
12214;SDS011;6170;42.206;24.142;2022-07-23T21:42:07;12.10;;;6.47;;
12214;SDS011;6170;42.206;24.142;2022-07-23T21:44:34;17.63;;;7.13;;
12214;SDS011;6170;42.206;24.142;2022-07-23T21:47:01;12.32;;;6.20;;
12214;SDS011;6170;42.206;24.142;2022-07-23T21:49:29;15.73;;;6.10;;
12214;SDS011;6170;42.206;24.142;2022-07-23T21:51:56;15.70;;;6.53;;
12214;SDS011;6170;42.206;24.142;2022-07-23T21:54:23;16.13;;;6.18;;
12214;SDS011;6170;42.206;24.142;2022-07-23T21:56:50;12.38;;;6.00;;
12214;SDS011;6170;42.206;24.142;2022-07-23T21:59:16;17.77;;;6.78;;
12214;SDS011;6170;42.206;24.142;2022-07-23T22:01:43;16.02;;;6.55;;
12214;SDS011;6170;42.206;24.142;2022-07-23T22:04:10;14.68;;;6.47;;
12214;SDS011;6170;42.206;24.142;2022-07-23T22:06:38;15.38;;;6.30;;
12214;SDS011;6170;42.206;24.142;2022-07-23T22:09:05;23.17;;;6.88;;
12214;SDS011;6170;42.206;24.142;2022-07-23T22:11:32;11.00;;;5.85;;
12214;SDS011;6170;42.206;24.142;2022-07-23T22:13:59;9.40;;;5.68;;
12214;SDS011;6170;42.206;24.142;2022-07-23T22:16:26;15.88;;;5.72;;
12214;SDS011;6170;42.206;24.142;2022-07-23T22:18:53;15.32;;;6.50;;
12214;SDS011;6170;42.206;24.142;2022-07-23T22:21:20;11.02;;;5.95;;
12214;SDS011;6170;42.206;24.142;2022-07-23T22:23:48;12.65;;;6.13;;
12214;SDS011;6170;42.206;24.142;2022-07-23T22:26:15;14.65;;;6.97;;
12214;SDS011;6170;42.206;24.142;2022-07-23T22:28:42;21.42;;;6.22;;
12214;SDS011;6170;42.206;24.142;2022-07-23T22:31:09;13.20;;;6.30;;
12214;SDS011;6170;42.206;24.142;2022-07-23T22:33:35;16.73;;;6.15;;
12214;SDS011;6170;42.206;24.142;2022-07-23T22:36:03;11.20;;;5.97;;
12214;SDS011;6170;42.206;24.142;2022-07-23T22:38:30;26.23;;;6.93;;
12214;SDS011;6170;42.206;24.142;2022-07-23T22:40:58;16.67;;;5.93;;
12214;SDS011;6170;42.206;24.142;2022-07-23T22:43:25;15.98;;;6.32;;
12214;SDS011;6170;42.206;24.142;2022-07-23T22:45:52;15.07;;;6.55;;
12214;SDS011;6170;42.206;24.142;2022-07-23T22:48:18;12.50;;;6.32;;
12214;SDS011;6170;42.206;24.142;2022-07-23T22:50:45;19.30;;;6.93;;
12214;SDS011;6170;42.206;24.142;2022-07-23T22:53:12;14.57;;;6.97;;
12214;SDS011;6170;42.206;24.142;2022-07-23T22:55:39;14.55;;;6.97;;
12214;SDS011;6170;42.206;24.142;2022-07-23T22:58:07;13.00;;;5.82;;
12214;SDS011;6170;42.206;24.142;2022-07-23T23:00:34;17.23;;;6.70;;
12214;SDS011;6170;42.206;24.142;2022-07-23T23:03:01;9.23;;;5.45;;
12214;SDS011;6170;42.206;24.142;2022-07-23T23:05:28;15.68;;;6.20;;
12214;SDS011;6170;42.206;24.142;2022-07-23T23:07:55;13.25;;;6.50;;
12214;SDS011;6170;42.206;24.142;2022-07-23T23:10:21;10.77;;;6.60;;
12214;SDS011;6170;42.206;24.142;2022-07-23T23:12:48;13.73;;;6.82;;
12214;SDS011;6170;42.206;24.142;2022-07-23T23:15:18;20.02;;;6.22;;
12214;SDS011;6170;42.206;24.142;2022-07-23T23:17:45;15.63;;;6.60;;
12214;SDS011;6170;42.206;24.142;2022-07-23T23:20:12;16.65;;;6.32;;
12214;SDS011;6170;42.206;24.142;2022-07-23T23:22:39;14.88;;;6.93;;
12214;SDS011;6170;42.206;24.142;2022-07-23T23:25:07;16.60;;;6.28;;
12214;SDS011;6170;42.206;24.142;2022-07-23T23:27:34;16.30;;;7.03;;
12214;SDS011;6170;42.206;24.142;2022-07-23T23:30:01;12.68;;;7.03;;
12214;SDS011;6170;42.206;24.142;2022-07-23T23:32:29;16.90;;;6.55;;
12214;SDS011;6170;42.206;24.142;2022-07-23T23:34:56;16.05;;;6.32;;
12214;SDS011;6170;42.206;24.142;2022-07-23T23:37:23;16.02;;;7.55;;
12214;SDS011;6170;42.206;24.142;2022-07-23T23:39:50;15.80;;;6.63;;
12214;SDS011;6170;42.206;24.142;2022-07-23T23:42:16;11.43;;;6.15;;
12214;SDS011;6170;42.206;24.142;2022-07-23T23:44:43;12.73;;;7.25;;
12214;SDS011;6170;42.206;24.142;2022-07-23T23:47:10;16.63;;;6.43;;
12214;SDS011;6170;42.206;24.142;2022-07-23T23:49:39;12.75;;;6.15;;
12214;SDS011;6170;42.206;24.142;2022-07-23T23:52:06;12.40;;;5.90;;
12214;SDS011;6170;42.206;24.142;2022-07-23T23:54:33;13.73;;;6.28;;
12214;SDS011;6170;42.206;24.142;2022-07-23T23:56:59;10.10;;;5.97;;
12214;SDS011;6170;42.206;24.142;2022-07-23T23:59:26;15.70;;;5.78;;
